Terminal Aerodrome Forecast
Issued by NWS Upton, NY

Home | Current Version | Previous Version | Text Only | Print | Product List | Glossary On
Versions: 1 2 3 4 5 6 7 8 9 10 11 12 13 14 15 16 17 18 19 20 21 22 23 24 25 26 27 28 29 30 31
422
FTUS41 KOKX 261342 AAA
TAFJFK
TAF AMD
KJFK 261342Z 2614/2718 32010KT P6SM FEW030 SCT250
     FM261600 28012G20KT P6SM FEW250
     FM262000 25015G23KT P6SM FEW060 FEW250
     FM262300 28008KT P6SM FEW250
     FM270200 34007KT P6SM FEW250
     FM270500 01005KT P6SM FEW250
     FM271500 22008KT P6SM FEW150 FEW250=

USA.gov is the U.S. government's official web portal to all federal, state and local government web resources and services.